createdAt,value
2017-12-03T00:01:03.221Z,20.93
2017-12-03T00:03:31.022Z,22.57
2017-12-03T00:05:58.584Z,18.87
2017-12-03T00:08:26.139Z,16.43
2017-12-03T00:10:53.668Z,18.27
2017-12-03T00:13:21.221Z,14.50
2017-12-03T00:15:48.796Z,16.63
2017-12-03T00:18:16.364Z,18.33
2017-12-03T00:20:44.146Z,18.30
2017-12-03T00:23:11.705Z,16.20
2017-12-03T00:25:39.225Z,17.33
2017-12-03T00:28:06.811Z,17.30
2017-12-03T00:30:34.382Z,17.53
2017-12-03T00:33:01.908Z,17.33
2017-12-03T00:35:29.507Z,20.03
2017-12-03T00:38:02.137Z,16.90
2017-12-03T00:40:30.485Z,20.70
2017-12-03T00:42:58.009Z,19.27
2017-12-03T00:45:25.571Z,23.20
2017-12-03T00:47:53.141Z,19.80
2017-12-03T00:50:20.677Z,20.57
2017-12-03T00:52:48.197Z,19.23
2017-12-03T00:55:15.785Z,20.97
2017-12-03T00:57:45.395Z,23.50
2017-12-03T01:00:13.386Z,21.10
2017-12-03T01:02:40.940Z,20.90
2017-12-03T01:05:08.506Z,20.40
2017-12-03T01:07:36.025Z,20.53
2017-12-03T01:10:04.332Z,19.30
2017-12-03T01:12:32.254Z,20.80
2017-12-03T01:14:59.827Z,21.30
2017-12-03T01:17:28.116Z,20.53
2017-12-03T01:19:55.643Z,23.07
2017-12-03T01:22:23.232Z,19.27
2017-12-03T01:24:50.891Z,18.03
2017-12-03T01:27:18.414Z,21.80
2017-12-03T01:29:46.026Z,21.63
2017-12-03T01:32:13.569Z,19.50
2017-12-03T01:34:41.093Z,19.53
2017-12-03T01:37:08.653Z,22.83
2017-12-03T01:39:36.178Z,21.27
2017-12-03T01:42:03.901Z,19.47
2017-12-03T01:44:31.457Z,21.23
2017-12-03T01:46:58.988Z,19.50
2017-12-03T01:49:26.562Z,21.00
2017-12-03T01:51:54.171Z,20.90
2017-12-03T01:54:21.697Z,20.40
2017-12-03T01:56:49.987Z,21.00
2017-12-03T01:59:17.677Z,19.73
2017-12-03T02:01:45.206Z,23.37
2017-12-03T02:04:13.559Z,24.47
2017-12-03T02:06:41.134Z,21.37
2017-12-03T02:09:09.105Z,21.13
2017-12-03T02:11:36.666Z,22.70
2017-12-03T02:14:05.031Z,25.30
2017-12-03T02:16:33.377Z,24.53
2017-12-03T02:19:00.980Z,23.33
2017-12-03T02:21:28.753Z,23.40
2017-12-03T02:23:56.334Z,23.60
2017-12-03T02:26:23.862Z,22.53
2017-12-03T02:28:51.555Z,22.77
2017-12-03T02:31:19.099Z,23.00
2017-12-03T02:33:46.674Z,25.23
2017-12-03T02:36:14.221Z,23.97
2017-12-03T02:38:41.765Z,24.33
2017-12-03T02:41:09.328Z,23.87
2017-12-03T02:43:36.841Z,23.40
2017-12-03T02:46:04.414Z,23.23
2017-12-03T02:48:32.027Z,22.27
2017-12-03T02:50:59.581Z,25.60
2017-12-03T02:53:27.201Z,26.73
2017-12-03T02:55:54.711Z,29.50
2017-12-03T02:58:27.496Z,27.43
2017-12-03T03:00:55.036Z,27.73
2017-12-03T03:03:23.316Z,26.47
2017-12-03T03:05:50.892Z,24.97
2017-12-03T03:08:18.414Z,25.43
2017-12-03T03:10:45.936Z,27.30
2017-12-03T03:13:13.510Z,24.77
2017-12-03T03:15:41.044Z,27.57
2017-12-03T03:18:08.600Z,29.07
2017-12-03T03:20:36.123Z,28.10
2017-12-03T03:23:03.673Z,27.17
2017-12-03T03:25:31.251Z,28.60
2017-12-03T03:27:59.532Z,29.50
2017-12-03T03:30:27.829Z,27.50
2017-12-03T03:32:55.348Z,28.63
2017-12-03T03:35:22.906Z,30.53
2017-12-03T03:37:50.429Z,30.33
2017-12-03T03:40:17.980Z,26.23
2017-12-03T03:42:45.516Z,24.00
2017-12-03T03:45:13.040Z,27.13
2017-12-03T03:47:40.592Z,27.63
2017-12-03T03:50:08.112Z,25.23
2017-12-03T03:52:35.675Z,27.47
2017-12-03T03:55:03.212Z,30.27
2017-12-03T03:57:30.758Z,25.77
2017-12-03T03:59:58.324Z,31.90
2017-12-03T04:02:26.656Z,30.63
2017-12-03T04:04:54.216Z,29.57
2017-12-03T04:07:21.735Z,30.10
2017-12-03T04:09:49.655Z,29.47
2017-12-03T04:12:17.216Z,29.93
2017-12-03T04:14:44.766Z,29.17
2017-12-03T04:17:12.332Z,28.73
2017-12-03T04:19:39.848Z,30.07
2017-12-03T04:22:07.351Z,31.20
2017-12-03T04:24:34.927Z,32.23
2017-12-03T04:27:02.471Z,34.03
2017-12-03T04:29:30.022Z,32.27
2017-12-03T04:31:57.541Z,30.97
2017-12-03T04:34:25.516Z,31.53
2017-12-03T04:36:53.062Z,29.80
2017-12-03T04:39:20.612Z,29.60
2017-12-03T04:41:48.158Z,31.57
2017-12-03T04:44:16.474Z,29.60
2017-12-03T04:46:44.338Z,31.33
2017-12-03T04:49:11.883Z,29.73
2017-12-03T04:51:39.431Z,30.43
2017-12-03T04:54:06.945Z,30.03
2017-12-03T04:56:34.479Z,30.20
2017-12-03T04:59:02.023Z,32.40
2017-12-03T05:01:29.588Z,34.97
2017-12-03T05:03:57.164Z,33.03
2017-12-03T05:06:24.684Z,29.17
2017-12-03T05:08:52.222Z,31.33
2017-12-03T05:11:19.772Z,29.30
2017-12-03T05:13:47.331Z,33.07
2017-12-03T05:16:14.847Z,28.37
2017-12-03T05:18:42.399Z,25.83
2017-12-03T05:21:09.911Z,31.50
2017-12-03T05:23:37.447Z,27.67
2017-12-03T05:26:05.003Z,29.23
2017-12-03T05:28:32.520Z,29.47
2017-12-03T05:31:00.107Z,30.53
2017-12-03T05:33:27.619Z,29.40
2017-12-03T05:35:55.139Z,31.10
2017-12-03T05:38:22.687Z,29.43
2017-12-03T05:40:50.243Z,30.40
2017-12-03T05:43:17.756Z,34.30
2017-12-03T05:45:45.319Z,29.70
2017-12-03T05:48:12.897Z,29.87
2017-12-03T05:50:41.197Z,32.07
2017-12-03T05:53:08.758Z,33.20
2017-12-03T05:55:36.343Z,31.43
2017-12-03T05:58:03.850Z,33.03
2017-12-03T06:00:31.427Z,30.97
2017-12-03T06:02:58.937Z,33.87
2017-12-03T06:05:26.816Z,33.70
2017-12-03T06:07:54.325Z,33.50
2017-12-03T06:10:21.843Z,33.17
2017-12-03T06:12:50.164Z,31.90
2017-12-03T06:15:17.701Z,33.73
2017-12-03T06:17:45.245Z,32.53
2017-12-03T06:20:12.795Z,32.60
2017-12-03T06:22:40.370Z,35.00
2017-12-03T06:25:08.701Z,33.17
2017-12-03T06:27:36.247Z,35.57
2017-12-03T06:30:03.749Z,34.03
2017-12-03T06:32:31.288Z,34.07
2017-12-03T06:34:58.845Z,33.77
2017-12-03T06:37:26.676Z,31.97
2017-12-03T06:39:54.211Z,35.27
2017-12-03T06:42:21.736Z,27.30
2017-12-03T06:44:49.260Z,27.77
2017-12-03T06:47:16.846Z,26.83
2017-12-03T06:49:44.374Z,28.10
2017-12-03T06:52:11.920Z,29.00
2017-12-03T06:54:39.466Z,27.20
2017-12-03T06:57:07.788Z,26.00
2017-12-03T06:59:35.366Z,32.97
2017-12-03T07:02:02.901Z,27.87
2017-12-03T07:04:30.427Z,27.90
2017-12-03T07:06:57.981Z,28.47
2017-12-03T07:09:26.693Z,27.50
2017-12-03T07:11:54.231Z,27.87
2017-12-03T07:14:21.764Z,29.27
2017-12-03T07:16:49.318Z,30.47
2017-12-03T07:19:16.889Z,28.53
2017-12-03T07:21:44.449Z,29.70
2017-12-03T07:24:11.997Z,26.60
2017-12-03T07:26:39.531Z,29.53
2017-12-03T07:29:07.068Z,26.60
2017-12-03T07:31:34.625Z,27.67
2017-12-03T07:34:02.179Z,30.33
2017-12-03T07:36:29.708Z,30.57
2017-12-03T07:38:57.244Z,25.73
2017-12-03T07:41:24.799Z,31.83
2017-12-03T07:43:52.320Z,28.33
2017-12-03T07:46:19.906Z,27.30
2017-12-03T07:48:47.439Z,26.23
2017-12-03T07:51:14.976Z,26.17
2017-12-03T07:53:43.252Z,26.33
2017-12-03T07:56:10.812Z,26.93
2017-12-03T07:58:38.386Z,28.83
2017-12-03T08:01:05.963Z,27.23
2017-12-03T08:03:33.484Z,27.80
2017-12-03T08:06:01.816Z,29.37
2017-12-03T08:08:29.331Z,28.90
2017-12-03T08:10:57.651Z,26.50
2017-12-03T08:13:25.245Z,26.70
2017-12-03T08:15:52.803Z,28.60
2017-12-03T08:18:20.777Z,26.67
2017-12-03T08:20:48.312Z,28.73
2017-12-03T08:23:15.847Z,26.60
2017-12-03T08:25:43.387Z,27.97
2017-12-03T08:28:10.936Z,25.80
2017-12-03T08:30:38.448Z,25.13
2017-12-03T08:33:05.987Z,25.07
2017-12-03T08:35:33.503Z,26.90
2017-12-03T08:38:01.836Z,26.83
2017-12-03T08:40:29.384Z,27.83
2017-12-03T08:42:56.912Z,24.87
2017-12-03T08:45:25.228Z,31.33
2017-12-03T08:47:53.049Z,27.13
2017-12-03T08:50:20.573Z,23.70
2017-12-03T08:52:48.116Z,26.90
2017-12-03T08:55:15.859Z,25.73
2017-12-03T08:57:43.430Z,23.77
2017-12-03T09:00:10.988Z,24.13
2017-12-03T09:02:38.645Z,25.07
2017-12-03T09:05:06.711Z,22.57
2017-12-03T09:07:34.216Z,25.50
2017-12-03T09:10:01.728Z,26.90
2017-12-03T09:12:29.276Z,24.23
2017-12-03T09:14:56.823Z,23.50
2017-12-03T09:17:24.347Z,26.87
2017-12-03T09:19:52.212Z,22.80
2017-12-03T09:22:19.733Z,20.47
2017-12-03T09:24:47.267Z,23.27
2017-12-03T09:27:14.829Z,20.20
2017-12-03T09:29:42.404Z,21.77
2017-12-03T09:32:09.956Z,24.50
2017-12-03T09:34:37.517Z,19.97
2017-12-03T09:37:05.088Z,24.83
2017-12-03T09:39:32.849Z,22.07
2017-12-03T09:42:00.388Z,21.30
2017-12-03T09:44:28.710Z,21.27
2017-12-03T09:46:56.262Z,22.60
2017-12-03T09:49:23.776Z,23.43
2017-12-03T09:51:51.364Z,23.53
2017-12-03T09:54:18.889Z,23.30
2017-12-03T09:56:47.200Z,22.07
2017-12-03T09:59:14.773Z,21.83
2017-12-03T10:01:42.325Z,21.87
2017-12-03T10:04:09.869Z,21.90
2017-12-03T10:06:37.426Z,22.37
2017-12-03T10:09:04.962Z,22.20
2017-12-03T10:11:32.521Z,23.57
2017-12-03T10:14:00.043Z,22.53
2017-12-03T10:16:27.602Z,24.30
2017-12-03T10:18:55.128Z,22.83
2017-12-03T10:21:22.681Z,22.77
2017-12-03T10:23:50.266Z,21.77
2017-12-03T10:26:17.822Z,22.07
2017-12-03T10:28:45.384Z,23.23
2017-12-03T10:31:12.992Z,19.97
2017-12-03T10:33:40.559Z,20.57
2017-12-03T10:36:08.080Z,21.33
2017-12-03T10:38:35.619Z,23.03
2017-12-03T10:41:03.140Z,20.80
2017-12-03T10:43:31.472Z,16.87
2017-12-03T10:45:59.021Z,21.00
2017-12-03T10:48:26.560Z,21.80
2017-12-03T10:50:54.093Z,18.90
2017-12-03T10:53:22.429Z,25.87
2017-12-03T10:55:49.966Z,19.87
2017-12-03T10:58:17.521Z,16.80
2017-12-03T11:00:45.078Z,21.30
2017-12-03T11:03:12.639Z,19.27
2017-12-03T11:05:40.160Z,16.40
2017-12-03T11:08:07.677Z,18.30
2017-12-03T11:10:35.268Z,17.53
2017-12-03T11:13:02.834Z,18.73
2017-12-03T11:15:30.365Z,16.43
2017-12-03T11:17:57.906Z,18.20
2017-12-03T11:20:25.464Z,18.27
2017-12-03T11:22:53.233Z,18.50
2017-12-03T11:25:20.790Z,18.87
2017-12-03T11:27:49.067Z,15.47
2017-12-03T11:30:16.640Z,19.67
2017-12-03T11:32:44.180Z,17.13
2017-12-03T11:35:11.724Z,18.43
2017-12-03T11:37:39.252Z,19.57
2017-12-03T11:40:06.819Z,20.17
2017-12-03T11:42:34.345Z,19.07
2017-12-03T11:45:01.887Z,24.53
2017-12-03T11:47:29.421Z,16.90
2017-12-03T11:49:57.000Z,18.67
2017-12-03T11:52:24.611Z,20.50
2017-12-03T11:54:52.183Z,16.77
2017-12-03T11:57:19.711Z,18.73
2017-12-03T11:59:47.255Z,15.90
2017-12-03T12:02:14.816Z,17.60
2017-12-03T12:04:42.330Z,18.57
2017-12-03T12:07:09.888Z,16.83
2017-12-03T12:09:38.208Z,19.03
2017-12-03T12:12:05.739Z,20.57
2017-12-03T12:14:33.311Z,16.83
2017-12-03T12:17:00.834Z,20.83
2017-12-03T12:19:28.405Z,18.10
2017-12-03T12:21:56.758Z,17.50
2017-12-03T12:24:24.355Z,17.17
2017-12-03T12:26:52.011Z,18.00
2017-12-03T12:29:19.575Z,19.43
2017-12-03T12:31:47.171Z,17.60
2017-12-03T12:34:14.958Z,17.53
2017-12-03T12:36:42.609Z,17.27
2017-12-03T12:39:10.153Z,18.27
2017-12-03T12:41:37.672Z,19.30
2017-12-03T12:44:06.009Z,18.67
2017-12-03T12:46:33.617Z,18.93
2017-12-03T12:49:01.913Z,22.80
2017-12-03T12:51:29.513Z,17.27
2017-12-03T12:53:57.145Z,18.43
2017-12-03T12:56:25.283Z,18.07
2017-12-03T12:58:54.020Z,19.03
2017-12-03T13:01:21.530Z,18.57
2017-12-03T13:03:49.427Z,15.23
2017-12-03T13:06:16.959Z,25.23
2017-12-03T13:08:44.654Z,17.70
2017-12-03T13:11:12.182Z,18.43
2017-12-03T13:13:39.735Z,19.10
2017-12-03T13:16:07.259Z,20.33
2017-12-03T13:18:34.856Z,19.13
2017-12-03T13:21:02.454Z,17.33
2017-12-03T13:23:29.968Z,16.73
2017-12-03T13:25:58.283Z,20.70
2017-12-03T13:28:25.832Z,18.10
2017-12-03T13:30:53.436Z,17.70
2017-12-03T13:33:20.964Z,17.77
2017-12-03T13:35:48.491Z,18.77
2017-12-03T13:38:16.040Z,19.50
2017-12-03T13:40:44.051Z,19.53
2017-12-03T13:43:11.619Z,22.83
2017-12-03T13:45:39.221Z,18.93
2017-12-03T13:48:06.836Z,20.17
2017-12-03T13:50:34.389Z,22.20
2017-12-03T13:53:01.902Z,18.03
2017-12-03T13:55:29.460Z,22.30
2017-12-03T13:57:56.972Z,21.83
2017-12-03T14:00:24.571Z,20.47
2017-12-03T14:02:52.140Z,23.37
2017-12-03T14:05:20.777Z,20.23
2017-12-03T14:07:48.306Z,24.27
2017-12-03T14:10:15.874Z,23.77
2017-12-03T14:12:43.440Z,23.20
2017-12-03T14:15:10.977Z,40.23
2017-12-03T14:17:38.510Z,26.40
2017-12-03T14:20:06.160Z,24.97
2017-12-03T14:22:33.752Z,25.03
2017-12-03T14:25:01.276Z,24.23
2017-12-03T14:27:28.832Z,21.27
2017-12-03T14:29:56.375Z,24.80
2017-12-03T14:32:23.970Z,24.70
2017-12-03T14:34:51.496Z,25.13
2017-12-03T14:37:19.013Z,32.80
2017-12-03T14:39:46.572Z,32.23
2017-12-03T14:42:14.170Z,25.67
2017-12-03T14:44:41.809Z,25.30
2017-12-03T14:47:09.390Z,28.30
2017-12-03T14:49:36.924Z,33.83
2017-12-03T14:52:04.466Z,31.30
2017-12-03T14:54:32.010Z,26.63
2017-12-03T14:56:59.568Z,25.87
2017-12-03T14:59:27.102Z,29.47
2017-12-03T15:01:54.626Z,31.13
2017-12-03T15:04:22.187Z,25.23
2017-12-03T15:06:50.531Z,28.07
2017-12-03T15:09:18.147Z,26.97
2017-12-03T15:11:45.674Z,28.30
2017-12-03T15:14:13.270Z,30.53
2017-12-03T15:16:40.792Z,36.47
2017-12-03T15:19:08.327Z,24.83
2017-12-03T15:21:35.860Z,23.67
2017-12-03T15:24:03.435Z,31.00
2017-12-03T15:26:31.830Z,27.80
2017-12-03T15:28:59.360Z,27.73
2017-12-03T15:31:27.004Z,26.93
2017-12-03T15:33:54.769Z,25.83
2017-12-03T15:36:22.322Z,23.63
2017-12-03T15:38:50.756Z,26.90
2017-12-03T15:41:18.324Z,28.90
2017-12-03T15:43:46.639Z,25.23
2017-12-03T15:46:14.248Z,25.57
2017-12-03T15:48:41.788Z,26.37
2017-12-03T15:51:09.383Z,27.53
2017-12-03T15:53:37.688Z,24.70
2017-12-03T15:56:05.300Z,28.43
2017-12-03T15:58:32.837Z,28.10
2017-12-03T16:01:00.410Z,29.33
2017-12-03T16:03:27.982Z,24.80
2017-12-03T16:05:55.512Z,27.83
2017-12-03T16:08:23.112Z,29.30
2017-12-03T16:10:50.632Z,29.90
2017-12-03T16:13:18.176Z,31.20
2017-12-03T16:15:45.751Z,33.47
2017-12-03T16:18:13.342Z,29.17
2017-12-03T16:20:40.905Z,32.73
2017-12-03T16:23:08.439Z,29.07
2017-12-03T16:25:36.006Z,26.10
2017-12-03T16:28:03.564Z,29.23
2017-12-03T16:30:31.117Z,27.40
2017-12-03T16:32:58.688Z,28.60
2017-12-03T16:35:26.221Z,29.43
2017-12-03T16:37:53.776Z,28.77
2017-12-03T16:40:21.367Z,27.17
2017-12-03T16:42:48.879Z,26.77
2017-12-03T16:45:16.441Z,25.33
2017-12-03T16:47:43.983Z,29.90
2017-12-03T16:50:12.277Z,28.03
2017-12-03T16:52:39.832Z,24.87
2017-12-03T16:55:07.395Z,34.33
2017-12-03T16:57:35.133Z,31.27
2017-12-03T17:00:02.680Z,27.73
2017-12-03T17:02:30.281Z,28.70
2017-12-03T17:04:57.827Z,26.90
2017-12-03T17:07:25.405Z,24.77
2017-12-03T17:09:52.962Z,31.20
2017-12-03T17:12:20.484Z,29.77
2017-12-03T17:14:48.047Z,29.50
2017-12-03T17:17:15.624Z,25.90
2017-12-03T17:19:43.197Z,26.47
2017-12-03T17:22:10.756Z,27.57
2017-12-03T17:24:38.326Z,31.23
2017-12-03T17:27:05.858Z,25.50
2017-12-03T17:29:34.258Z,28.53
2017-12-03T17:32:02.623Z,25.87
2017-12-03T17:34:30.940Z,27.27
2017-12-03T17:36:58.458Z,24.17
2017-12-03T17:39:26.021Z,22.93
2017-12-03T17:41:53.560Z,22.50
2017-12-03T17:44:21.864Z,24.67
2017-12-03T17:46:49.412Z,25.63
2017-12-03T17:49:17.745Z,23.93
2017-12-03T17:51:45.362Z,25.33
2017-12-03T17:54:12.947Z,24.87
2017-12-03T17:56:40.512Z,26.93
2017-12-03T17:59:08.041Z,27.73
2017-12-03T18:01:35.593Z,26.00
2017-12-03T18:04:03.153Z,28.90
2017-12-03T18:06:31.468Z,28.70
2017-12-03T18:08:58.994Z,26.60
2017-12-03T18:11:27.315Z,24.33
2017-12-03T18:13:54.847Z,30.70
2017-12-03T18:16:22.399Z,30.20
2017-12-03T18:18:49.924Z,37.17
2017-12-03T18:21:17.509Z,36.33
2017-12-03T18:23:45.819Z,29.93
2017-12-03T18:26:13.419Z,21.87
2017-12-03T18:28:40.982Z,22.77
2017-12-03T18:31:08.510Z,19.63
2017-12-03T18:33:36.065Z,19.53
2017-12-03T18:36:03.685Z,20.23
2017-12-03T18:38:31.283Z,19.33
2017-12-03T18:40:59.604Z,21.50
2017-12-03T18:43:28.046Z,20.20
2017-12-03T18:45:55.564Z,20.73
2017-12-03T18:48:23.163Z,18.53
2017-12-03T18:50:50.683Z,19.73
2017-12-03T18:53:18.248Z,19.60
2017-12-03T18:55:45.799Z,21.10
2017-12-03T18:58:13.363Z,17.97
2017-12-03T19:00:41.706Z,17.43
2017-12-03T19:03:09.290Z,20.03
2017-12-03T19:05:36.859Z,16.03
2017-12-03T19:08:05.237Z,16.97
2017-12-03T19:10:32.883Z,20.43
2017-12-03T19:13:00.437Z,18.40
2017-12-03T19:15:28.004Z,17.30
2017-12-03T19:17:56.950Z,18.00
2017-12-03T19:20:25.454Z,18.33
2017-12-03T19:22:53.073Z,15.67
2017-12-03T19:25:20.681Z,16.07
2017-12-03T19:27:48.239Z,17.03
2017-12-03T19:30:15.777Z,16.07
2017-12-03T19:32:43.353Z,18.57
2017-12-03T19:35:10.937Z,18.47
2017-12-03T19:37:38.528Z,16.67
2017-12-03T19:40:06.088Z,17.63
2017-12-03T19:42:33.735Z,15.60
2017-12-03T19:45:01.522Z,18.07
2017-12-03T19:47:29.087Z,17.50
2017-12-03T19:49:56.672Z,17.67
2017-12-03T19:52:24.206Z,17.93
2017-12-03T19:54:51.864Z,18.13
2017-12-03T19:57:19.456Z,18.67
2017-12-03T19:59:47.055Z,18.23
2017-12-03T20:02:14.657Z,14.73
2017-12-03T20:04:42.291Z,16.77
2017-12-03T20:07:09.876Z,19.97
2017-12-03T20:09:37.425Z,16.90
2017-12-03T20:12:04.991Z,17.17
2017-12-03T20:14:32.633Z,16.63
2017-12-03T20:17:00.238Z,14.10
2017-12-03T20:19:27.773Z,15.23
2017-12-03T20:21:55.332Z,16.07
2017-12-03T20:24:22.891Z,15.07
2017-12-03T20:26:50.407Z,17.00
2017-12-03T20:29:18.807Z,20.60
2017-12-03T20:31:46.377Z,19.00
2017-12-03T20:34:13.947Z,15.97
2017-12-03T20:36:41.530Z,19.40
2017-12-03T20:39:09.144Z,20.47
2017-12-03T20:41:36.680Z,20.87
2017-12-03T20:44:04.240Z,15.67
2017-12-03T20:46:31.764Z,15.90
2017-12-03T20:48:59.311Z,16.50
2017-12-03T20:51:26.865Z,16.80
2017-12-03T20:53:54.403Z,17.63
2017-12-03T20:56:22.704Z,16.87
2017-12-03T20:58:50.242Z,19.07
2017-12-03T21:01:17.800Z,19.03
2017-12-03T21:03:45.335Z,15.07
2017-12-03T21:06:12.896Z,20.93
2017-12-03T21:08:40.412Z,17.87
2017-12-03T21:11:08.005Z,18.13
2017-12-03T21:13:35.564Z,19.33
2017-12-03T21:16:03.094Z,18.67
2017-12-03T21:18:30.709Z,18.87
2017-12-03T21:20:59.065Z,20.50
2017-12-03T21:23:27.383Z,21.93
2017-12-03T21:25:54.975Z,22.20
2017-12-03T21:28:22.722Z,23.70
2017-12-03T21:30:50.280Z,19.23
2017-12-03T21:33:17.793Z,21.37
2017-12-03T21:35:45.350Z,19.87
2017-12-03T21:38:13.697Z,23.23
2017-12-03T21:40:41.223Z,21.47
2017-12-03T21:43:08.821Z,25.63
2017-12-03T21:45:36.409Z,19.37
2017-12-03T21:48:04.734Z,25.13
2017-12-03T21:50:32.312Z,26.87
2017-12-03T21:52:59.847Z,31.20
2017-12-03T21:55:27.374Z,29.13
2017-12-03T21:57:54.969Z,22.93
2017-12-03T22:00:22.520Z,23.60
2017-12-03T22:02:50.087Z,23.23
2017-12-03T22:05:17.704Z,22.60
2017-12-03T22:07:45.335Z,21.20
2017-12-03T22:10:12.897Z,22.40
2017-12-03T22:12:40.420Z,20.77
2017-12-03T22:15:08.011Z,21.27
2017-12-03T22:17:35.528Z,26.73
2017-12-03T22:20:03.808Z,28.10
2017-12-03T22:22:31.352Z,23.40
2017-12-03T22:24:59.643Z,25.00
2017-12-03T22:27:27.213Z,26.37
2017-12-03T22:29:54.770Z,22.87
2017-12-03T22:32:22.292Z,21.90
2017-12-03T22:34:49.860Z,22.70
2017-12-03T22:37:17.380Z,23.73
2017-12-03T22:39:44.904Z,21.50
2017-12-03T22:42:12.508Z,21.30
2017-12-03T22:44:40.028Z,23.07
2017-12-03T22:47:07.603Z,25.67
2017-12-03T22:49:35.183Z,21.07
2017-12-03T22:52:02.748Z,23.07
2017-12-03T22:54:30.304Z,22.90
2017-12-03T22:56:57.859Z,21.10
2017-12-03T22:59:25.411Z,19.37
2017-12-03T23:01:52.983Z,21.63
2017-12-03T23:04:35.347Z,21.83
2017-12-03T23:07:02.896Z,21.60
2017-12-03T23:09:30.407Z,20.17
2017-12-03T23:11:57.960Z,22.43
2017-12-03T23:14:25.505Z,23.03
2017-12-03T23:16:53.850Z,21.47
2017-12-03T23:19:22.177Z,20.37
2017-12-03T23:21:49.709Z,20.80
2017-12-03T23:24:17.255Z,19.50
2017-12-03T23:26:44.797Z,22.17
2017-12-03T23:29:12.352Z,23.97
2017-12-03T23:31:39.873Z,21.63
2017-12-03T23:34:07.419Z,22.70
2017-12-03T23:36:34.975Z,21.90
2017-12-03T23:39:02.535Z,22.83
2017-12-03T23:41:30.051Z,20.20
2017-12-03T23:43:57.617Z,19.57
2017-12-03T23:46:25.169Z,20.47
2017-12-03T23:48:52.681Z,18.27
2017-12-03T23:51:20.244Z,19.93
2017-12-03T23:53:47.762Z,22.17
2017-12-03T23:56:15.308Z,16.97
2017-12-03T23:58:43.612Z,20.43
